Time;durP1;ratioP1;P1;durP2;ratioP2;P2;SDS_P1;SDS_P2;PMS_P1;PMS_P2;Temp;Humidity;BMP_temperature;BMP_pressure;BME280_temperature;BME280_humidity;BME280_pressure;Samples;Min_cycle;Max_cycle;Signal;HPM_P1;HPM_P2
2024/04/07 00:00:55;;;;;;;3.30;1.77;;;18.30;99.90;;;;;;5057471;28;20677;-79
2024/04/07 00:03:21;;;;;;;2.55;1.45;;;18.30;99.90;;;;;;5055481;28;20676;-80
2024/04/07 00:05:53;;;;;;;3.60;1.58;;;18.30;99.90;;;;;;5054902;28;20216;-79
2024/04/07 00:08:19;;;;;;;2.38;1.80;;;18.50;99.90;;;;;;5055772;28;20253;-79
2024/04/07 00:10:48;;;;;;;3.15;1.73;;;18.50;99.90;;;;;;5054464;28;20202;-79
2024/04/07 00:13:14;;;;;;;1.85;1.35;;;18.60;99.90;;;;;;5048801;28;20199;-78
2024/04/07 00:15:41;;;;;;;2.00;1.50;;;18.40;99.90;;;;;;5054264;28;20277;-79
2024/04/07 00:18:07;;;;;;;2.08;1.58;;;18.30;99.90;;;;;;5057703;28;20202;-79
2024/04/07 00:20:34;;;;;;;3.00;1.50;;;18.40;99.90;;;;;;5058159;28;20206;-79
2024/04/07 00:23:00;;;;;;;1.65;1.33;;;18.00;99.90;;;;;;5067119;28;20217;-80
2024/04/07 00:25:27;;;;;;;2.80;1.63;;;17.80;99.90;;;;;;5065064;28;20765;-79
2024/04/07 00:27:54;;;;;;;1.63;1.52;;;17.70;99.90;;;;;;5062888;28;20595;-79
2024/04/07 00:30:21;;;;;;;2.60;1.70;;;17.50;99.90;;;;;;5056061;28;20213;-79
2024/04/07 00:32:47;;;;;;;3.00;1.70;;;17.40;99.90;;;;;;5055957;28;20210;-79
2024/04/07 00:35:14;;;;;;;3.58;1.63;;;17.10;99.90;;;;;;5050380;28;20207;-79
2024/04/07 00:37:40;;;;;;;3.58;1.48;;;17.10;99.90;;;;;;5060485;28;20195;-79
2024/04/07 00:40:09;;;;;;;3.42;1.67;;;17.30;99.90;;;;;;5057546;28;20202;-78
2024/04/07 00:42:34;;;;;;;3.92;1.50;;;17.90;99.90;;;;;;5065186;28;20218;-79
2024/04/07 00:45:03;;;;;;;1.73;1.63;;;18.40;99.90;;;;;;5062215;28;20256;-80
2024/04/07 00:47:29;;;;;;;1.52;1.42;;;18.40;99.90;;;;;;5056819;28;20230;-79
2024/04/07 00:49:58;;;;;;;3.08;1.70;;;18.80;99.90;;;;;;5057455;28;20289;-79
2024/04/07 00:52:24;;;;;;;1.95;1.52;;;19.40;99.90;;;;;;5059835;28;20203;-79
2024/04/07 00:54:51;;;;;;;2.83;1.60;;;19.30;99.90;;;;;;5058409;28;20293;-79
2024/04/07 00:57:17;;;;;;;2.88;1.70;;;19.10;99.90;;;;;;5045956;28;20226;-79
2024/04/07 00:59:44;;;;;;;2.58;1.73;;;18.90;99.90;;;;;;5045044;28;20230;-79
2024/04/07 01:02:12;;;;;;;2.78;1.20;;;19.00;99.90;;;;;;5054955;28;20280;-79
2024/04/07 01:04:39;;;;;;;1.95;1.25;;;19.10;99.90;;;;;;5051575;28;20662;-79
2024/04/07 01:07:05;;;;;;;1.45;1.35;;;19.40;99.90;;;;;;5051136;28;20231;-79
2024/04/07 01:09:32;;;;;;;2.03;1.50;;;19.80;90.90;;;;;;5053466;28;20736;-78
2024/04/07 01:11:58;;;;;;;3.47;1.50;;;19.50;95.70;;;;;;5058180;28;20195;-79
2024/04/07 01:14:25;;;;;;;1.98;1.77;;;19.90;54.60;;;;;;5050945;28;20223;-78
2024/04/07 01:16:51;;;;;;;2.47;1.25;;;20.00;33.60;;;;;;5055158;28;20286;-78
2024/04/07 01:19:19;;;;;;;1.95;1.63;;;19.90;16.40;;;;;;5058216;28;20961;-79
2024/04/07 01:21:45;;;;;;;3.25;1.75;;;20.30;17.90;;;;;;5058293;28;20258;-78
2024/04/07 01:24:14;;;;;;;3.80;1.60;;;20.00;3.80;;;;;;5064876;28;20257;-79
2024/04/07 01:26:40;;;;;;;1.63;1.25;;;20.30;25.10;;;;;;5060036;28;20253;-78
2024/04/07 01:29:07;;;;;;;1.38;1.30;;;20.30;24.40;;;;;;5058370;28;20196;-79
2024/04/07 01:31:32;;;;;;;2.20;1.38;;;20.00;17.00;;;;;;5056984;28;20355;-78
2024/04/07 01:33:59;;;;;;;1.67;1.27;;;19.80;26.70;;;;;;5048721;28;20207;-80
2024/04/07 01:36:25;;;;;;;2.22;1.50;;;19.80;19.40;;;;;;5061393;28;20245;-80
2024/04/07 01:38:52;;;;;;;1.85;1.42;;;19.80;18.00;;;;;;5056259;28;20200;-79
2024/04/07 01:41:20;;;;;;;1.75;1.65;;;19.60;22.60;;;;;;5067671;28;20226;-79
2024/04/07 01:43:47;;;;;;;2.53;1.50;;;19.60;19.50;;;;;;5060187;28;20203;-79
2024/04/07 01:46:13;;;;;;;2.45;1.40;;;19.50;32.00;;;;;;5064441;28;20227;-79
2024/04/07 01:48:41;;;;;;;2.53;1.67;;;19.50;27.00;;;;;;5063738;28;20201;-80
2024/04/07 01:51:07;;;;;;;1.40;1.30;;;19.40;36.70;;;;;;5065946;28;20613;-79
2024/04/07 01:53:34;;;;;;;2.10;1.75;;;19.50;26.80;;;;;;5060824;28;20289;-81
2024/04/07 01:56:01;;;;;;;1.73;1.52;;;19.30;27.30;;;;;;5053885;28;20222;-79
2024/04/07 01:58:29;;;;;;;3.13;1.83;;;19.80;26.00;;;;;;5057033;28;20287;-80
2024/04/07 02:00:55;;;;;;;3.60;1.38;;;19.40;37.80;;;;;;5044985;28;20204;-80
2024/04/07 02:03:22;;;;;;;2.78;1.85;;;19.40;29.30;;;;;;5053062;28;20618;-81
2024/04/07 02:05:48;;;;;;;3.55;1.58;;;19.30;28.30;;;;;;5044951;28;20223;-80
2024/04/07 02:08:15;;;;;;;2.42;1.58;;;19.40;43.10;;;;;;5051277;28;20230;-79
2024/04/07 02:10:49;;;;;;;4.60;1.40;;;19.40;43.90;;;;;;5052606;28;20192;-79
2024/04/07 02:13:16;;;;;;;3.92;1.90;;;19.30;28.00;;;;;;5048431;28;20207;-79
2024/04/07 02:15:43;;;;;;;3.30;1.80;;;19.40;33.90;;;;;;5045849;28;20686;-80
2024/04/07 02:18:11;;;;;;;1.60;1.50;;;19.40;20.00;;;;;;5058015;28;20211;-80
2024/04/07 02:20:36;;;;;;;3.47;1.70;;;19.60;34.40;;;;;;5060270;28;20203;-79
2024/04/07 02:23:04;;;;;;;2.20;1.60;;;19.50;30.40;;;;;;5058704;28;20305;-80
2024/04/07 02:25:30;;;;;;;2.25;1.23;;;19.40;19.60;;;;;;5056636;28;20276;-80
2024/04/07 02:27:57;;;;;;;2.75;1.60;;;19.40;31.10;;;;;;5064131;28;20677;-79
2024/04/07 02:30:23;;;;;;;3.13;1.60;;;19.30;37.00;;;;;;5053182;28;20211;-80
2024/04/07 02:32:51;;;;;;;2.90;1.67;;;19.40;37.60;;;;;;5051559;28;20199;-80
2024/04/07 02:35:17;;;;;;;1.80;1.50;;;19.40;34.90;;;;;;5054164;28;20203;-79
2024/04/07 02:37:44;;;;;;;2.67;1.35;;;19.40;32.40;;;;;;5053167;28;20220;-79
2024/04/07 02:40:10;;;;;;;3.30;1.70;;;19.40;26.90;;;;;;5052302;28;20206;-79
2024/04/07 02:42:37;;;;;;;3.00;1.73;;;19.40;52.60;;;;;;5058587;28;20223;-80
2024/04/07 02:48:07;;;;;;;1.33;1.23;;;19.50;37.20;;;;;;5055448;28;20202;-78
2024/04/07 02:50:34;;;;;;;1.67;1.38;;;19.30;37.10;;;;;;5053291;28;20198;-79
2024/04/07 02:53:02;;;;;;;1.92;1.63;;;19.40;41.90;;;;;;5060539;28;20262;-78
2024/04/07 02:55:29;;;;;;;1.98;1.58;;;19.30;38.40;;;;;;5057079;28;20199;-79
2024/04/07 02:57:55;;;;;;;1.67;1.58;;;19.30;33.90;;;;;;5057056;28;20202;-79
2024/04/07 03:00:22;;;;;;;2.03;1.50;;;19.40;49.50;;;;;;5057602;28;20199;-78
2024/04/07 03:02:48;;;;;;;2.28;1.38;;;19.50;30.70;;;;;;5054084;28;20241;-80
2024/04/07 03:05:17;;;;;;;2.88;1.50;;;19.60;31.20;;;;;;5056518;28;20206;-79
2024/04/07 03:07:43;;;;;;;3.13;1.70;;;19.60;34.40;;;;;;5053905;28;20207;-79
2024/04/07 03:10:10;;;;;;;3.35;1.70;;;19.60;37.10;;;;;;5049235;28;20340;-80
2024/04/07 03:12:36;;;;;;;2.72;1.42;;;19.60;32.90;;;;;;5050638;28;20269;-80
2024/04/07 03:15:04;;;;;;;1.63;1.52;;;19.50;34.90;;;;;;5054857;28;20199;-80
2024/04/07 03:17:30;;;;;;;2.35;1.90;;;19.30;41.70;;;;;;5053933;28;20230;-80
2024/04/07 03:19:57;;;;;;;1.98;1.70;;;19.50;34.30;;;;;;5056571;28;20633;-79
2024/04/07 03:22:25;;;;;;;5.07;1.77;;;19.50;41.10;;;;;;5060110;28;20347;-80
2024/04/07 03:24:52;;;;;;;1.95;1.77;;;19.50;25.40;;;;;;5058498;28;20298;-79
2024/04/07 03:27:18;;;;;;;2.35;1.50;;;19.30;37.80;;;;;;5056298;28;20285;-80
2024/04/07 03:29:45;;;;;;;2.63;1.30;;;19.30;39.60;;;;;;5062841;28;20205;-80
2024/04/07 03:32:11;;;;;;;1.88;1.70;;;19.20;52.50;;;;;;5064467;28;20651;-79
2024/04/07 03:34:38;;;;;;;1.92;1.40;;;19.10;47.70;;;;;;5057484;28;20206;-78
2024/04/07 03:37:06;;;;;;;3.75;1.77;;;19.20;45.90;;;;;;5057904;28;20223;-79
2024/04/07 03:39:34;;;;;;;2.33;1.70;;;19.20;55.00;;;;;;5056536;28;20214;-79
2024/04/07 03:42:01;;;;;;;3.42;1.65;;;19.30;40.60;;;;;;5062764;28;20249;-79
2024/04/07 03:44:29;;;;;;;2.33;1.55;;;19.20;48.80;;;;;;5061724;28;20248;-79
2024/04/07 03:46:57;;;;;;;3.38;1.67;;;19.00;54.60;;;;;;5054591;28;20320;-79
2024/04/07 03:49:24;;;;;;;4.25;1.83;;;19.00;63.00;;;;;;5054598;28;20204;-81
2024/04/07 03:51:50;;;;;;;3.58;1.55;;;19.00;56.10;;;;;;5064998;28;20203;-80
2024/04/07 03:54:18;;;;;;;1.70;1.55;;;19.00;65.70;;;;;;5058412;28;20210;-81
2024/04/07 03:56:45;;;;;;;2.15;1.95;;;18.90;66.20;;;;;;5059371;28;20230;-81
2024/04/07 03:59:12;;;;;;;2.38;1.83;;;18.90;83.60;;;;;;5057582;28;20207;-81
2024/04/07 04:01:39;;;;;;;3.65;1.85;;;18.80;87.70;;;;;;5061257;28;20368;-80
2024/04/07 04:04:06;;;;;;;5.43;1.63;;;18.70;99.90;;;;;;5055531;28;20199;-80
2024/04/07 04:06:32;;;;;;;1.85;1.58;;;18.50;99.60;;;;;;5059237;28;20207;-79
2024/04/07 04:08:59;;;;;;;4.57;1.77;;;18.60;99.90;;;;;;5054919;28;20257;-79
2024/04/07 04:11:26;;;;;;;4.03;1.70;;;18.30;99.90;;;;;;5058813;28;20195;-80
2024/04/07 04:13:55;;;;;;;1.70;1.60;;;18.20;99.90;;;;;;5048507;28;20249;-81
2024/04/07 04:16:21;;;;;;;2.17;1.60;;;17.80;99.90;;;;;;5058406;28;20304;-79
2024/04/07 04:18:47;;;;;;;2.35;1.70;;;17.60;99.90;;;;;;5052412;28;20818;-80
2024/04/07 04:21:13;;;;;;;6.55;1.70;;;17.70;99.90;;;;;;5061049;28;20260;-80
2024/04/07 04:23:41;;;;;;;3.25;1.80;;;17.40;99.90;;;;;;5061140;28;20203;-79
2024/04/07 04:26:07;;;;;;;3.55;1.60;;;17.30;99.90;;;;;;5059556;28;20227;-79
2024/04/07 04:28:34;;;;;;;2.33;1.50;;;17.00;99.90;;;;;;5050179;28;20191;-79
2024/04/07 04:31:07;;;;;;;4.20;1.60;;;16.90;99.90;;;;;;5053410;28;20239;-79
2024/04/07 04:33:34;;;;;;;2.30;1.90;;;17.10;99.90;;;;;;5055329;28;20267;-79
2024/04/07 04:36:00;;;;;;;2.30;1.98;;;16.90;99.90;;;;;;5051283;28;20224;-79
2024/04/07 04:38:27;;;;;;;3.05;1.80;;;17.10;99.90;;;;;;5059694;28;20221;-78
2024/04/07 04:40:53;;;;;;;3.58;1.55;;;16.90;99.90;;;;;;5052667;28;20231;-80
2024/04/07 04:43:20;;;;;;;3.05;1.60;;;16.80;99.90;;;;;;5054051;28;20286;-81
2024/04/07 04:45:47;;;;;;;4.82;1.90;;;17.10;99.90;;;;;;5053815;28;20226;-79
2024/04/07 04:48:16;;;;;;;3.38;1.80;;;17.20;99.90;;;;;;5054222;28;20204;-79
2024/04/07 04:50:52;;;;;;;1.67;1.48;;;17.10;99.90;;;;;;5047565;28;20199;-80
2024/04/07 04:53:19;;;;;;;2.03;1.40;;;17.10;99.90;;;;;;5049672;28;20215;-80
2024/04/07 04:55:45;;;;;;;1.60;1.50;;;17.30;99.90;;;;;;5057107;28;20608;-78
2024/04/07 04:58:12;;;;;;;2.25;1.60;;;17.50;99.90;;;;;;5052943;28;20226;-78
2024/04/07 05:00:38;;;;;;;2.55;1.80;;;17.80;99.90;;;;;;5057888;28;20226;-79
2024/04/07 05:03:05;;;;;;;3.17;1.52;;;17.80;99.90;;;;;;5055622;28;20250;-78
2024/04/07 05:05:32;;;;;;;4.10;1.65;;;18.20;99.90;;;;;;5062453;28;20207;-79
2024/04/07 05:07:59;;;;;;;2.67;1.40;;;18.60;99.90;;;;;;5057207;28;20199;-80
2024/04/07 05:10:25;;;;;;;3.83;1.90;;;18.60;99.90;;;;;;5051889;28;20207;-78
2024/04/07 05:12:52;;;;;;;3.97;1.50;;;18.80;99.90;;;;;;5053048;28;20302;-79
2024/04/07 05:15:19;;;;;;;1.85;1.50;;;18.80;99.90;;;;;;5060600;28;20588;-77
2024/04/07 05:17:46;;;;;;;4.68;1.85;;;18.90;99.90;;;;;;5057711;28;20268;-78
2024/04/07 05:20:14;;;;;;;3.78;1.83;;;18.70;99.90;;;;;;5049463;28;20257;-79
2024/04/07 05:22:43;;;;;;;4.07;1.70;;;18.70;99.90;;;;;;5050104;28;20636;-78
2024/04/07 05:25:09;;;;;;;4.18;1.55;;;18.80;99.90;;;;;;5054890;28;20203;-79
2024/04/07 05:27:36;;;;;;;4.13;1.77;;;18.70;99.90;;;;;;5051864;28;20596;-79
2024/04/07 05:30:03;;;;;;;4.43;1.60;;;18.60;99.90;;;;;;5052486;28;20234;-80
2024/04/07 05:32:31;;;;;;;3.35;1.60;;;18.60;99.90;;;;;;5052861;28;20200;-79
2024/04/07 05:34:57;;;;;;;7.57;1.80;;;18.80;99.90;;;;;;5057330;28;20226;-78
2024/04/07 05:37:26;;;;;;;5.68;1.67;;;18.70;99.90;;;;;;5055503;28;20772;-78
2024/04/07 05:39:53;;;;;;;6.07;1.58;;;18.60;99.90;;;;;;5050803;28;20652;-78
2024/04/07 05:42:20;;;;;;;3.83;1.95;;;18.50;99.90;;;;;;5049979;28;20227;-79
2024/04/07 05:44:46;;;;;;;3.88;2.08;;;18.60;99.90;;;;;;5050370;28;20199;-80
2024/04/07 05:47:14;;;;;;;4.13;2.00;;;18.40;99.90;;;;;;5051426;28;20216;-79
2024/04/07 05:49:41;;;;;;;3.97;2.08;;;18.40;99.90;;;;;;5055775;28;20661;-80
2024/04/07 05:52:08;;;;;;;4.70;1.70;;;18.30;99.90;;;;;;5051267;28;20242;-81
2024/04/07 05:54:34;;;;;;;2.88;1.70;;;18.30;99.90;;;;;;5052399;28;20204;-78
2024/04/07 05:57:03;;;;;;;7.03;1.77;;;18.30;99.90;;;;;;5054825;28;20216;-79
2024/04/07 05:59:29;;;;;;;7.80;2.00;;;18.40;99.90;;;;;;5053252;28;20214;-79
2024/04/07 06:01:56;;;;;;;4.32;2.42;;;18.30;99.90;;;;;;5055008;28;20222;-80
2024/04/07 06:04:24;;;;;;;5.97;2.13;;;18.40;99.90;;;;;;5054878;28;20206;-79
2024/04/07 06:06:51;;;;;;;6.03;1.92;;;18.40;99.90;;;;;;5060814;28;20218;-78
2024/04/07 06:09:18;;;;;;;7.22;2.33;;;18.40;99.90;;;;;;5059601;28;20202;-80
2024/04/07 06:11:45;;;;;;;4.15;2.10;;;18.40;99.90;;;;;;5052038;28;20199;-80
2024/04/07 06:14:13;;;;;;;4.78;2.78;;;18.40;99.90;;;;;;5049077;28;20666;-78
2024/04/07 06:16:39;;;;;;;6.90;2.20;;;18.40;99.90;;;;;;5055909;28;20253;-80
2024/04/07 06:19:06;;;;;;;6.30;2.30;;;18.60;99.90;;;;;;5053479;28;20202;-79
2024/04/07 06:21:32;;;;;;;2.33;1.95;;;18.90;99.90;;;;;;5046550;28;20208;-82
2024/04/07 06:23:59;;;;;;;6.85;2.30;;;19.00;99.90;;;;;;5056872;28;20270;-78
2024/04/07 06:26:25;;;;;;;9.82;2.15;;;19.00;99.90;;;;;;5059959;28;20250;-78
2024/04/07 06:28:52;;;;;;;6.20;2.17;;;19.00;99.90;;;;;;5048271;28;20203;-83
2024/04/07 06:31:20;;;;;;;4.22;1.67;;;19.00;99.90;;;;;;5048552;28;20211;-84
2024/04/07 06:33:47;;;;;;;3.85;1.90;;;19.00;99.90;;;;;;5057141;28;20222;-84
2024/04/07 06:36:13;;;;;;;3.88;1.92;;;19.20;1.00;;;;;;5056693;28;20218;-81
2024/04/07 06:38:40;;;;;;;7.22;2.28;;;19.20;1.00;;;;;;5046997;28;20231;-81
2024/04/07 06:41:06;;;;;;;5.00;1.92;;;19.20;1.00;;;;;;5048429;28;20635;-78
2024/04/07 06:43:34;;;;;;;8.50;2.35;;;19.00;1.00;;;;;;5050582;28;20223;-77
2024/04/07 06:46:00;;;;;;;4.82;2.13;;;19.00;1.00;;;;;;5054661;28;20221;-80
2024/04/07 06:48:28;;;;;;;9.73;2.45;;;19.10;1.00;;;;;;5054024;28;20289;-79
2024/04/07 06:50:54;;;;;;;3.88;2.25;;;19.30;1.00;;;;;;5051385;28;20627;-78
2024/04/07 06:53:23;;;;;;;4.32;2.80;;;19.20;1.00;;;;;;5048781;28;20201;-80
2024/04/07 06:55:49;;;;;;;5.25;1.75;;;19.20;1.00;;;;;;5052161;28;20743;-82
2024/04/07 06:58:16;;;;;;;3.65;1.95;;;19.10;1.00;;;;;;5054002;28;20226;-81
2024/04/07 07:00:42;;;;;;;5.00;2.15;;;19.00;1.00;;;;;;5043789;28;20199;-83
2024/04/07 07:03:09;;;;;;;4.97;1.67;;;19.10;1.00;;;;;;5053374;28;20315;-82
2024/04/07 07:05:36;;;;;;;2.53;1.88;;;19.10;1.00;;;;;;5053370;28;20204;-83
2024/04/07 07:08:04;;;;;;;7.32;2.97;;;19.20;1.00;;;;;;5054076;28;20207;-83
2024/04/07 07:10:29;;;;;;;5.53;2.00;;;19.20;1.00;;;;;;5048241;28;20225;-83
2024/04/07 07:12:56;;;;;;;4.15;1.83;;;19.20;1.00;;;;;;5053133;28;20198;-79
2024/04/07 07:15:22;;;;;;;3.90;1.85;;;19.40;1.00;;;;;;5057515;28;20556;-81
2024/04/07 07:17:49;;;;;;;6.50;1.80;;;19.40;1.00;;;;;;5052052;28;20202;-80
2024/04/07 07:20:15;;;;;;;3.97;1.90;;;19.30;1.00;;;;;;5050267;28;20265;-82
2024/04/07 07:22:44;;;;;;;6.15;1.67;;;19.30;1.00;;;;;;5059416;28;20882;-82
2024/04/07 07:25:10;;;;;;;5.15;1.63;;;19.30;1.00;;;;;;5059273;28;20268;-82
2024/04/07 07:27:37;;;;;;;2.47;1.10;;;19.30;1.00;;;;;;5043705;28;20225;-82
2024/04/07 07:30:04;;;;;;;3.22;1.42;;;19.30;1.00;;;;;;5039328;28;20242;-82
2024/04/07 07:32:33;;;;;;;2.70;1.30;;;19.30;1.00;;;;;;5042528;28;20799;-82
2024/04/07 07:34:59;;;;;;;4.78;1.40;;;19.40;1.00;;;;;;5050398;28;20195;-80
2024/04/07 07:37:26;;;;;;;3.55;1.25;;;19.50;1.00;;;;;;5046565;28;20700;-81
2024/04/07 07:39:53;;;;;;;5.30;3.25;;;19.60;1.00;;;;;;5043240;28;20234;-82
2024/04/07 07:42:20;;;;;;;5.13;1.65;;;19.60;1.00;;;;;;5045714;28;20227;-82
2024/04/07 07:44:46;;;;;;;2.63;1.13;;;19.70;1.00;;;;;;5050467;28;20291;-83
2024/04/07 07:47:13;;;;;;;4.15;1.30;;;19.60;1.00;;;;;;5041188;28;20273;-81
2024/04/07 07:49:39;;;;;;;5.25;1.63;;;19.70;1.00;;;;;;5047148;28;20238;-83
2024/04/07 07:52:07;;;;;;;2.67;1.25;;;19.90;1.00;;;;;;5052303;28;20238;-82
2024/04/07 07:54:33;;;;;;;3.25;1.48;;;19.80;1.00;;;;;;5046203;28;20207;-82
2024/04/07 07:57:02;;;;;;;2.35;1.33;;;20.00;1.00;;;;;;5051365;28;20272;-83
2024/04/07 07:59:28;;;;;;;2.38;1.20;;;20.00;1.00;;;;;;5042808;28;20552;-82
2024/04/07 08:01:55;;;;;;;1.77;1.13;;;19.90;1.00;;;;;;5048279;28;20570;-82
2024/04/07 08:04:21;;;;;;;4.10;1.35;;;19.90;1.00;;;;;;5053599;28;20238;-82
2024/04/07 08:06:48;;;;;;;3.88;1.52;;;19.70;1.00;;;;;;5045410;28;20225;-81
2024/04/07 08:09:17;;;;;;;3.55;1.27;;;19.90;1.00;;;;;;5038185;28;20265;-82
2024/04/07 08:11:44;;;;;;;4.75;1.20;;;20.10;1.00;;;;;;5058844;28;20203;-82
2024/04/07 08:14:12;;;;;;;2.63;1.15;;;20.40;1.00;;;;;;5055621;28;20211;-80
2024/04/07 08:16:39;;;;;;;2.03;1.42;;;20.40;1.00;;;;;;5059851;28;20310;-81
2024/04/07 08:19:05;;;;;;;3.08;1.45;;;20.60;1.00;;;;;;5051153;28;20226;-82
2024/04/07 08:21:33;;;;;;;2.42;1.27;;;20.50;1.00;;;;;;5056998;28;20202;-82
2024/04/07 08:24:00;;;;;;;2.80;1.20;;;20.20;1.00;;;;;;5058397;28;20305;-82
2024/04/07 08:26:27;;;;;;;2.28;1.10;;;20.20;1.00;;;;;;5046743;28;20266;-82
2024/04/07 08:28:53;;;;;;;4.10;1.17;;;20.50;1.00;;;;;;5051181;28;20294;-82
2024/04/07 08:31:21;;;;;;;3.20;1.27;;;20.40;1.00;;;;;;5045760;28;20234;-82
2024/04/07 08:33:47;;;;;;;3.67;1.10;;;20.40;1.00;;;;;;5065494;28;20231;-81
2024/04/07 08:36:14;;;;;;;3.42;0.93;;;20.10;1.00;;;;;;5061574;28;20229;-80
2024/04/07 08:38:41;;;;;;;3.47;1.25;;;20.00;1.00;;;;;;5056692;28;20230;-81
2024/04/07 08:41:10;;;;;;;1.98;0.95;;;19.90;1.00;;;;;;5049577;28;20194;-81
2024/04/07 08:43:39;;;;;;;3.20;1.10;;;19.90;1.00;;;;;;5048375;28;20309;-82
2024/04/07 08:46:10;;;;;;;1.63;1.17;;;20.00;1.00;;;;;;5050717;28;20219;-81
2024/04/07 08:48:41;;;;;;;2.05;1.67;;;19.90;1.00;;;;;;5053348;28;20260;-81
2024/04/07 08:51:09;;;;;;;2.38;1.13;;;19.80;1.00;;;;;;5048756;28;20207;-82
2024/04/07 08:53:39;;;;;;;4.65;1.00;;;19.70;1.00;;;;;;5051501;28;20202;-80
2024/04/07 08:56:07;;;;;;;4.57;1.23;;;19.60;1.00;;;;;;5045989;28;20223;-81
2024/04/07 08:58:34;;;;;;;3.78;1.20;;;19.60;1.00;;;;;;5045658;28;20206;-80
2024/04/07 09:01:01;;;;;;;2.80;0.85;;;19.70;1.00;;;;;;5055105;28;20203;-81
2024/04/07 09:03:29;;;;;;;2.60;0.88;;;19.80;1.00;;;;;;5042713;28;20747;-81
2024/04/07 09:05:58;;;;;;;1.45;0.70;;;20.00;1.00;;;;;;5053222;28;20246;-81
2024/04/07 09:08:25;;;;;;;3.08;1.20;;;20.20;1.00;;;;;;5051615;28;20203;-81
2024/04/07 09:10:51;;;;;;;3.13;1.25;;;20.30;1.00;;;;;;5051942;28;20211;-81
2024/04/07 09:13:18;;;;;;;6.13;1.42;;;20.60;1.00;;;;;;5056665;28;20260;-80
2024/04/07 09:15:44;;;;;;;7.07;1.20;;;21.00;1.00;;;;;;5055211;28;20755;-80
2024/04/07 09:18:12;;;;;;;2.28;1.20;;;21.10;1.00;;;;;;5047572;28;20203;-81
2024/04/07 09:20:38;;;;;;;2.65;1.10;;;21.20;1.00;;;;;;5053718;28;20211;-80
2024/04/07 09:23:07;;;;;;;4.13;1.85;;;21.00;1.00;;;;;;5055622;28;20250;-79
2024/04/07 09:25:33;;;;;;;4.63;1.08;;;21.10;1.00;;;;;;5046349;28;20212;-79
2024/04/07 09:28:00;;;;;;;4.55;1.20;;;21.30;1.00;;;;;;5047283;28;20256;-81
2024/04/07 09:30:26;;;;;;;3.60;1.23;;;21.20;1.00;;;;;;5051012;28;20245;-81
2024/04/07 09:32:53;;;;;;;4.03;1.20;;;21.00;1.00;;;;;;5052660;28;20199;-80
2024/04/07 09:35:19;;;;;;;2.65;1.15;;;20.80;1.00;;;;;;5053091;28;20269;-81
2024/04/07 09:37:46;;;;;;;6.50;1.48;;;20.90;1.00;;;;;;5051998;28;20572;-80
2024/04/07 09:40:13;;;;;;;3.72;1.27;;;20.80;1.00;;;;;;5054250;28;20257;-81
2024/04/07 09:42:41;;;;;;;3.08;1.40;;;20.80;1.00;;;;;;5048033;28;20693;-81
2024/04/07 09:45:09;;;;;;;2.38;1.60;;;20.70;1.00;;;;;;5046704;28;20230;-81
2024/04/07 09:47:36;;;;;;;4.22;2.40;;;21.30;1.00;;;;;;5045127;28;20736;-81
2024/04/07 09:50:09;;;;;;;3.00;1.45;;;21.90;1.00;;;;;;5047615;28;20200;-81
2024/04/07 09:52:43;;;;;;;2.70;1.70;;;22.10;1.00;;;;;;5049054;28;20658;-80
2024/04/07 09:55:17;;;;;;;3.88;1.85;;;22.30;1.00;;;;;;5049255;28;20946;-81
2024/04/07 09:57:43;;;;;;;3.78;1.35;;;22.10;1.00;;;;;;5042912;28;20265;-81
2024/04/07 10:00:13;;;;;;;5.38;1.70;;;21.80;1.00;;;;;;5046206;28;20211;-80
2024/04/07 10:02:39;;;;;;;6.13;1.90;;;22.40;1.00;;;;;;5052702;28;20223;-80
2024/04/07 10:05:07;;;;;;;3.78;1.90;;;22.40;1.00;;;;;;5052491;28;20613;-80
2024/04/07 10:07:35;;;;;;;5.32;2.22;;;22.50;1.00;;;;;;5048709;28;20688;-80
2024/04/07 10:10:03;;;;;;;2.92;1.70;;;22.50;1.00;;;;;;5048998;28;20202;-81
2024/04/07 10:12:31;;;;;;;3.40;1.63;;;22.80;99.90;;;;;;5050915;28;20743;-81
2024/04/07 10:14:59;;;;;;;6.53;2.30;;;23.00;1.00;;;;;;5048049;28;20206;-80
2024/04/07 10:17:27;;;;;;;4.68;1.80;;;23.20;1.00;;;;;;5049912;28;20246;-80
2024/04/07 10:19:56;;;;;;;6.70;2.00;;;23.20;99.90;;;;;;5048331;28;20658;-81
2024/04/07 10:22:23;;;;;;;4.50;1.92;;;23.10;99.90;;;;;;5053771;28;20703;-81
2024/04/07 10:24:51;;;;;;;6.97;2.30;;;23.00;99.90;;;;;;5050582;28;20242;-81
2024/04/07 10:27:23;;;;;;;7.65;2.10;;;23.30;99.90;;;;;;5048108;28;20306;-82
2024/04/07 10:29:54;;;;;;;3.72;2.35;;;23.60;99.90;;;;;;5049474;28;20575;-82
2024/04/07 10:32:26;;;;;;;3.70;2.08;;;23.70;99.90;;;;;;5045001;28;20261;-82
2024/04/07 10:35:05;;;;;;;3.90;1.73;;;23.50;99.90;;;;;;5055297;28;20205;-80
2024/04/07 10:37:33;;;;;;;6.15;1.88;;;23.50;99.90;;;;;;5044600;28;20971;-83
2024/04/07 10:40:05;;;;;;;4.10;1.90;;;23.50;99.90;;;;;;5054563;28;20205;-83
2024/04/07 10:42:31;;;;;;;4.78;2.22;;;23.30;99.90;;;;;;5052700;28;20199;-81
2024/04/07 10:45:02;;;;;;;2.42;1.83;;;23.40;99.90;;;;;;5045256;28;20199;-81
2024/04/07 10:47:28;;;;;;;3.33;1.63;;;23.70;99.90;;;;;;5048222;28;20219;-81
2024/04/07 10:49:56;;;;;;;3.53;1.67;;;23.90;99.90;;;;;;5045043;28;20214;-81
2024/04/07 10:52:26;;;;;;;5.05;1.88;;;23.90;99.90;;;;;;5045126;28;20568;-82
2024/04/07 10:54:54;;;;;;;5.95;1.58;;;24.00;99.90;;;;;;5052680;28;20283;-80
2024/04/07 10:57:20;;;;;;;4.68;1.60;;;23.60;99.90;;;;;;5052207;28;20218;-81
2024/04/07 10:59:47;;;;;;;4.43;2.10;;;24.00;99.90;;;;;;5055283;28;20260;-80
2024/04/07 11:02:15;;;;;;;5.85;1.55;;;24.20;99.90;;;;;;5051372;28;20203;-81
2024/04/07 11:04:42;;;;;;;3.88;1.55;;;24.20;99.90;;;;;;5045893;28;20247;-81
2024/04/07 11:07:09;;;;;;;6.38;1.85;;;24.10;99.90;;;;;;5051731;28;20280;-81
2024/04/07 11:09:39;;;;;;;4.03;1.60;;;24.10;99.90;;;;;;5052845;28;20522;-82
2024/04/07 11:12:06;;;;;;;4.30;1.55;;;24.00;99.90;;;;;;5053078;28;20252;-82
2024/04/07 11:14:33;;;;;;;1.75;1.17;;;24.00;99.90;;;;;;5054460;28;20195;-81
2024/04/07 11:17:02;;;;;;;3.67;1.40;;;24.00;99.90;;;;;;5051038;28;20243;-80
2024/04/07 11:19:32;;;;;;;6.43;1.73;;;24.00;99.90;;;;;;5052085;28;20194;-81
2024/04/07 11:21:58;;;;;;;2.53;1.30;;;23.70;99.90;;;;;;5050836;28;20203;-82
2024/04/07 11:24:25;;;;;;;3.78;1.75;;;24.00;99.90;;;;;;5045963;28;20220;-82
2024/04/07 11:26:51;;;;;;;2.80;1.50;;;24.20;99.90;;;;;;5046153;28;20242;-82
2024/04/07 11:29:19;;;;;;;1.95;1.48;;;24.30;99.90;;;;;;5048958;28;20657;-80
2024/04/07 11:31:50;;;;;;;3.78;1.88;;;24.00;99.90;;;;;;5050483;28;20203;-81
2024/04/07 11:34:22;;;;;;;3.85;1.00;;;24.20;99.90;;;;;;5052360;28;20253;-81
2024/04/07 11:36:50;;;;;;;5.93;1.30;;;24.60;99.90;;;;;;5049574;28;20216;-83
2024/04/07 11:39:17;;;;;;;3.67;1.30;;;24.60;99.90;;;;;;5049821;28;20208;-82
2024/04/07 11:41:43;;;;;;;3.70;1.20;;;24.70;99.90;;;;;;5044115;28;20200;-82
2024/04/07 11:44:10;;;;;;;3.55;1.27;;;24.80;99.90;;;;;;5060055;28;20225;-80
2024/04/07 11:46:36;;;;;;;6.78;3.17;;;24.90;99.90;;;;;;5058839;28;20223;-81
2024/04/07 11:49:04;;;;;;;3.13;1.50;;;24.90;99.90;;;;;;5055464;28;20191;-81
2024/04/07 11:51:31;;;;;;;2.05;1.30;;;24.80;99.90;;;;;;5052951;28;20554;-80
2024/04/07 11:53:59;;;;;;;2.15;1.10;;;24.40;99.90;;;;;;5050644;28;20223;-82
2024/04/07 11:56:26;;;;;;;3.38;1.00;;;24.40;99.90;;;;;;5055598;28;20227;-81
2024/04/07 11:58:53;;;;;;;3.45;1.23;;;24.70;99.90;;;;;;5059307;28;20198;-81
2024/04/07 12:01:19;;;;;;;3.33;1.50;;;24.80;99.90;;;;;;5055577;28;20215;-81
2024/04/07 12:03:46;;;;;;;5.47;1.80;;;24.70;99.90;;;;;;5050993;28;20265;-83
2024/04/07 12:06:12;;;;;;;3.72;1.25;;;24.90;99.90;;;;;;5055420;28;20261;-82
2024/04/07 12:08:39;;;;;;;2.67;1.50;;;25.20;99.90;;;;;;5056364;28;20669;-81
2024/04/07 12:11:07;;;;;;;3.88;1.58;;;25.30;99.90;;;;;;5054938;28;20261;-82
2024/04/07 12:13:34;;;;;;;3.10;1.45;;;25.30;99.90;;;;;;5052498;28;20227;-82
2024/04/07 12:16:00;;;;;;;2.03;1.10;;;25.30;99.90;;;;;;5057402;28;20685;-82
2024/04/07 12:18:27;;;;;;;4.50;1.48;;;25.40;99.90;;;;;;5056086;28;20203;-81
2024/04/07 12:20:54;;;;;;;3.50;1.38;;;25.40;99.90;;;;;;5051364;28;20277;-82
2024/04/07 12:23:21;;;;;;;7.88;1.67;;;25.40;99.90;;;;;;5058614;28;20602;-82
2024/04/07 12:25:46;;;;;;;4.13;1.50;;;25.40;99.90;;;;;;5051325;28;20223;-81
2024/04/07 12:28:15;;;;;;;4.13;2.05;;;25.10;99.90;;;;;;5052511;28;20195;-80
2024/04/07 12:30:41;;;;;;;5.40;1.80;;;25.20;99.90;;;;;;5046323;28;20295;-81
2024/04/07 12:33:08;;;;;;;3.72;1.45;;;25.70;99.90;;;;;;5055194;28;20219;-83
2024/04/07 12:35:35;;;;;;;3.22;1.50;;;25.30;99.90;;;;;;5057777;28;20252;-82
2024/04/07 12:38:03;;;;;;;5.72;1.65;;;25.20;99.90;;;;;;5056812;28;20202;-80
2024/04/07 12:40:29;;;;;;;3.97;1.30;;;25.00;99.90;;;;;;5042247;28;21030;-81
2024/04/07 12:42:56;;;;;;;4.18;1.70;;;25.20;99.90;;;;;;5047926;28;20203;-81
2024/04/07 12:45:23;;;;;;;8.43;1.67;;;25.60;99.90;;;;;;5048888;28;20574;-81
2024/04/07 12:47:50;;;;;;;3.92;1.38;;;25.60;99.90;;;;;;5052964;28;20227;-81
2024/04/07 12:50:16;;;;;;;3.38;1.90;;;25.30;99.90;;;;;;5054806;28;20206;-80
2024/04/07 12:52:47;;;;;;;3.63;1.50;;;25.20;99.90;;;;;;5056052;28;20205;-80